createdAt,value
2018-04-22T00:01:29.144Z,14.37
2018-04-22T00:03:59.016Z,13.30
2018-04-22T00:06:27.228Z,13.37
2018-04-22T00:08:56.672Z,14.00
2018-04-22T00:11:24.889Z,15.40
2018-04-22T00:13:53.143Z,13.50
2018-04-22T00:16:28.407Z,13.53
2018-04-22T00:18:57.120Z,15.37
2018-04-22T00:21:26.104Z,13.60
2018-04-22T00:23:54.317Z,14.53
2018-04-22T00:26:22.905Z,14.87
2018-04-22T00:28:51.124Z,14.30
2018-04-22T00:31:19.341Z,14.50
2018-04-22T00:33:48.196Z,16.50
2018-04-22T00:36:16.869Z,14.83
2018-04-22T00:38:45.686Z,15.00
2018-04-22T00:41:14.295Z,15.20
2018-04-22T00:43:42.563Z,15.07
2018-04-22T00:46:11.857Z,14.63
2018-04-22T00:48:40.831Z,17.43
2018-04-22T00:51:09.624Z,14.90
2018-04-22T00:53:49.651Z,16.23
2018-04-22T00:56:17.896Z,14.70
2018-04-22T00:58:46.739Z,16.40
2018-04-22T01:01:15.444Z,14.70
2018-04-22T01:03:44.424Z,15.50
2018-04-22T01:06:13.020Z,15.70
2018-04-22T01:08:41.740Z,16.30
2018-04-22T01:11:09.940Z,18.00
2018-04-22T01:13:38.151Z,15.40
2018-04-22T01:16:09.390Z,16.80
2018-04-22T01:18:37.600Z,15.30
2018-04-22T01:21:05.820Z,16.30
2018-04-22T01:23:34.059Z,16.20
2018-04-22T01:26:03.651Z,16.47
2018-04-22T01:28:32.633Z,16.13
2018-04-22T01:31:01.644Z,14.37
2018-04-22T01:33:31.180Z,16.00
2018-04-22T01:35:59.830Z,15.60
2018-04-22T01:38:28.954Z,16.80
2018-04-22T01:40:57.823Z,17.00
2018-04-22T01:43:26.791Z,17.17
2018-04-22T01:45:55.219Z,15.70
2018-04-22T01:48:23.435Z,18.10
2018-04-22T01:50:52.156Z,16.70
2018-04-22T01:53:21.327Z,17.80
2018-04-22T01:55:49.505Z,17.90
2018-04-22T01:58:18.656Z,17.40
2018-04-22T02:00:47.128Z,16.60
2018-04-22T02:03:16.000Z,17.90
2018-04-22T02:05:45.319Z,16.20
2018-04-22T02:08:14.293Z,17.40
2018-04-22T02:10:43.713Z,17.27
2018-04-22T02:13:12.675Z,19.03
2018-04-22T02:15:40.888Z,17.20
2018-04-22T02:18:09.423Z,16.30
2018-04-22T02:20:37.704Z,18.97
2018-04-22T02:23:05.920Z,17.50
2018-04-22T02:25:34.136Z,16.63
2018-04-22T02:28:02.354Z,16.37
2018-04-22T02:30:31.349Z,16.20
2018-04-22T02:33:01.111Z,15.80
2018-04-22T02:35:29.552Z,17.33
2018-04-22T02:37:58.537Z,17.93
2018-04-22T02:40:27.113Z,17.47
2018-04-22T02:42:56.092Z,16.20
2018-04-22T02:45:24.714Z,17.90
2018-04-22T02:47:53.175Z,16.70
2018-04-22T02:50:22.694Z,16.47
2018-04-22T02:52:51.664Z,15.50
2018-04-22T02:55:20.274Z,16.23
2018-04-22T02:57:48.766Z,18.23
2018-04-22T03:00:17.732Z,18.20
2018-04-22T03:02:45.959Z,15.93
2018-04-22T03:05:14.813Z,17.30
2018-04-22T03:07:43.789Z,16.43
2018-04-22T03:10:12.387Z,16.83
2018-04-22T03:12:41.484Z,17.97
2018-04-22T03:15:10.457Z,19.83
2018-04-22T03:17:39.060Z,16.73
2018-04-22T03:20:08.041Z,18.40
2018-04-22T03:22:36.247Z,18.20
2018-04-22T03:25:04.484Z,16.90
2018-04-22T03:27:32.692Z,17.73
2018-04-22T03:30:01.465Z,19.33
2018-04-22T03:32:30.772Z,17.30
2018-04-22T03:34:59.750Z,17.57
2018-04-22T03:37:28.038Z,18.97
2018-04-22T03:39:57.059Z,16.57
2018-04-22T03:42:25.277Z,17.03
2018-04-22T03:44:53.489Z,16.60
2018-04-22T03:47:22.064Z,16.97
2018-04-22T03:49:51.168Z,17.00
2018-04-22T03:52:26.585Z,16.90
2018-04-22T03:54:54.789Z,18.30
2018-04-22T03:57:23.783Z,17.63
2018-04-22T03:59:52.010Z,17.53
2018-04-22T04:02:20.223Z,16.33
2018-04-22T04:04:48.965Z,17.97
2018-04-22T04:07:21.308Z,17.73
2018-04-22T04:09:51.591Z,15.87
2018-04-22T04:12:20.306Z,15.80
2018-04-22T04:14:49.292Z,16.13
2018-04-22T04:17:17.601Z,16.27
2018-04-22T04:33:14.020Z,15.37
2018-04-22T04:35:42.228Z,17.47
2018-04-22T04:38:10.873Z,16.40
2018-04-22T04:40:39.937Z,16.20
2018-04-22T04:43:08.120Z,15.67
2018-04-22T04:45:36.904Z,15.93
2018-04-22T04:48:05.165Z,17.30
2018-04-22T04:50:33.460Z,15.80
2018-04-22T04:53:01.684Z,17.17
2018-04-22T04:55:30.332Z,16.80
2018-04-22T04:57:58.544Z,17.80
2018-04-22T05:00:26.761Z,16.50
2018-04-22T05:02:55.769Z,18.17
2018-04-22T05:05:24.192Z,17.00
2018-04-22T05:07:52.407Z,18.40
2018-04-22T05:10:20.846Z,17.30
2018-04-22T05:12:50.319Z,16.87
2018-04-22T05:15:18.776Z,16.50
2018-04-22T05:17:47.508Z,17.30
2018-04-22T05:20:16.481Z,18.60
2018-04-22T05:22:44.688Z,20.90
2018-04-22T05:25:12.924Z,19.60
2018-04-22T05:27:41.424Z,20.43
2018-04-22T05:30:09.638Z,19.50
2018-04-22T05:32:38.296Z,18.33
2018-04-22T05:35:07.465Z,21.10
2018-04-22T05:37:35.644Z,19.87
2018-04-22T05:40:04.774Z,20.40
2018-04-22T05:42:33.752Z,20.27
2018-04-22T05:45:01.977Z,19.67
2018-04-22T05:47:30.837Z,19.90
2018-04-22T05:50:00.472Z,20.30
2018-04-22T05:52:28.689Z,20.70
2018-04-22T05:54:56.895Z,21.43
2018-04-22T05:57:25.129Z,20.87
2018-04-22T05:59:53.350Z,21.83
2018-04-22T06:02:21.555Z,20.43
2018-04-22T06:04:50.182Z,21.00
2018-04-22T06:07:18.396Z,21.23
2018-04-22T06:09:47.371Z,21.53
2018-04-22T06:12:16.675Z,19.87
2018-04-22T06:14:45.667Z,19.63
2018-04-22T06:17:14.466Z,22.87
2018-04-22T06:19:43.432Z,20.40
2018-04-22T06:22:11.716Z,19.20
2018-04-22T06:24:39.969Z,21.00
2018-04-22T06:27:08.164Z,21.53
2018-04-22T06:29:36.391Z,19.63
2018-04-22T06:32:05.168Z,21.10
2018-04-22T06:34:33.380Z,19.80
2018-04-22T06:37:01.606Z,18.90
2018-04-22T06:39:30.652Z,18.63
2018-04-22T06:41:58.868Z,19.87
2018-04-22T06:44:27.846Z,17.80
2018-04-22T06:46:56.242Z,20.07
2018-04-22T06:49:25.266Z,19.00
2018-04-22T06:51:54.020Z,18.27
2018-04-22T06:54:23.321Z,18.47
2018-04-22T06:56:56.165Z,17.97
2018-04-22T06:59:24.502Z,16.20
2018-04-22T07:01:54.007Z,19.57
2018-04-22T07:04:23.040Z,16.30
2018-04-22T07:06:51.275Z,16.40
2018-04-22T07:09:20.272Z,16.40
2018-04-22T07:11:49.595Z,15.60
2018-04-22T07:14:17.822Z,15.80
2018-04-22T07:16:46.234Z,18.70
2018-04-22T07:19:14.443Z,17.57
2018-04-22T07:21:42.659Z,18.00
2018-04-22T07:24:11.671Z,16.90
2018-04-22T07:26:40.658Z,17.27
2018-04-22T07:29:08.996Z,17.93
2018-04-22T07:31:37.815Z,18.70
2018-04-22T07:34:06.041Z,17.50
2018-04-22T07:36:34.266Z,18.40
2018-04-22T07:39:03.783Z,18.07
2018-04-22T07:41:32.792Z,17.90
2018-04-22T07:44:01.389Z,17.87
2018-04-22T07:46:29.869Z,19.03
2018-04-22T07:48:58.132Z,18.33
2018-04-22T07:51:27.620Z,17.23
2018-04-22T07:53:56.608Z,16.97
2018-04-22T07:56:25.062Z,16.27
2018-04-22T07:58:53.267Z,15.93
2018-04-22T08:01:22.273Z,16.90
2018-04-22T08:03:53.869Z,15.90
2018-04-22T08:06:22.083Z,15.40
2018-04-22T08:08:50.401Z,14.00
2018-04-22T08:11:18.681Z,14.60
2018-04-22T08:13:46.986Z,13.77
2018-04-22T08:16:15.591Z,14.03
2018-04-22T08:18:43.747Z,14.40
2018-04-22T08:21:11.960Z,13.97
2018-04-22T08:23:40.223Z,15.10
2018-04-22T08:26:08.440Z,12.87
2018-04-22T08:28:36.652Z,13.20
2018-04-22T08:31:05.646Z,13.60
2018-04-22T08:33:33.951Z,12.53
2018-04-22T08:36:02.560Z,12.63
2018-04-22T08:38:31.752Z,12.80
2018-04-22T08:41:00.795Z,13.77
2018-04-22T08:43:29.010Z,11.30
2018-04-22T08:45:58.251Z,12.07
2018-04-22T08:48:26.529Z,11.10
2018-04-22T08:50:55.003Z,11.97
2018-04-22T08:53:23.675Z,12.17
2018-04-22T08:55:54.203Z,12.50
2018-04-22T08:58:22.375Z,12.90
2018-04-22T09:00:51.012Z,12.20
2018-04-22T09:03:19.217Z,11.47
2018-04-22T09:05:47.427Z,12.87
2018-04-22T09:08:16.199Z,12.50
2018-04-22T09:10:45.512Z,12.33
2018-04-22T09:13:13.711Z,10.80
2018-04-22T09:15:41.941Z,11.43
2018-04-22T09:18:10.333Z,10.40
2018-04-22T09:20:39.323Z,10.97
2018-04-22T09:23:08.311Z,12.30
2018-04-22T09:25:36.555Z,11.50
2018-04-22T09:28:04.765Z,11.57
2018-04-22T09:30:32.980Z,10.97
2018-04-22T09:33:01.662Z,12.30
2018-04-22T09:35:30.933Z,42.03
2018-04-22T09:38:01.083Z,15.67
2018-04-22T09:40:30.162Z,10.93
2018-04-22T09:42:59.333Z,9.90
2018-04-22T09:45:41.522Z,10.83
2018-04-22T09:48:10.343Z,11.07
2018-04-22T09:50:39.508Z,11.07
2018-04-22T09:53:07.836Z,10.90
2018-04-22T09:55:36.101Z,10.90
2018-04-22T09:58:04.583Z,10.43
2018-04-22T10:00:33.592Z,11.07
2018-04-22T10:03:07.395Z,11.10
2018-04-22T10:05:41.361Z,10.60
2018-04-22T10:08:10.118Z,9.60
2018-04-22T10:10:43.489Z,10.80
2018-04-22T10:13:12.476Z,11.80
2018-04-22T10:15:41.460Z,10.40
2018-04-22T10:18:10.780Z,9.90
2018-04-22T10:20:39.760Z,10.50
2018-04-22T10:23:08.764Z,9.67
2018-04-22T10:25:37.247Z,9.70
2018-04-22T10:28:05.728Z,9.77
2018-04-22T10:30:33.942Z,9.00
2018-04-22T10:33:02.559Z,8.30
2018-04-22T10:35:31.467Z,8.80
2018-04-22T10:38:00.380Z,9.30
2018-04-22T10:40:29.663Z,8.87
2018-04-22T10:42:58.732Z,9.07
2018-04-22T10:48:08.139Z,8.80
2018-04-22T10:50:36.632Z,8.20
2018-04-22T10:53:05.329Z,8.00
2018-04-22T10:55:34.399Z,9.30
2018-04-22T10:58:10.925Z,9.10
2018-04-22T11:00:44.377Z,7.80
2018-04-22T11:03:13.118Z,7.10
2018-04-22T11:05:41.582Z,7.20
2018-04-22T11:08:09.787Z,5.70
2018-04-22T11:10:43.735Z,7.13
2018-04-22T11:13:11.934Z,6.37
2018-04-22T11:15:40.534Z,7.40
2018-04-22T11:18:09.893Z,5.40
2018-04-22T11:20:38.099Z,6.33
2018-04-22T11:23:06.346Z,6.70
2018-04-22T11:25:34.580Z,6.80
2018-04-22T11:28:03.436Z,6.80
2018-04-22T11:30:31.644Z,6.83
2018-04-22T11:33:07.612Z,8.10
2018-04-22T11:35:35.816Z,7.27
2018-04-22T11:38:04.915Z,7.20
2018-04-22T11:40:42.272Z,6.63
2018-04-22T11:43:10.648Z,6.90
2018-04-22T11:45:47.215Z,7.83
2018-04-22T11:48:15.699Z,7.13
2018-04-22T11:50:44.094Z,10.90
2018-04-22T11:53:12.388Z,8.00
2018-04-22T11:55:41.666Z,7.27
2018-04-22T11:58:09.864Z,7.43
2018-04-22T12:00:42.604Z,6.67
2018-04-22T12:03:10.904Z,7.37
2018-04-22T12:05:39.307Z,6.80
2018-04-22T12:08:07.524Z,7.20
2018-04-22T12:10:43.440Z,7.20
2018-04-22T12:13:11.644Z,7.70
2018-04-22T12:15:39.852Z,7.23
2018-04-22T12:18:08.771Z,6.53
2018-04-22T12:20:37.789Z,6.87
2018-04-22T12:23:06.240Z,6.40
2018-04-22T12:25:34.557Z,7.20
2018-04-22T12:28:02.766Z,7.03
2018-04-22T12:30:30.981Z,6.90
2018-04-22T12:33:00.294Z,6.97
2018-04-22T12:35:29.652Z,7.10
2018-04-22T12:37:58.699Z,6.33
2018-04-22T12:40:27.128Z,6.80
2018-04-22T12:42:55.625Z,7.30
2018-04-22T12:45:24.106Z,5.90
2018-04-22T12:47:52.407Z,6.13
2018-04-22T12:50:20.799Z,6.57
2018-04-22T12:52:49.304Z,6.17
2018-04-22T12:55:17.505Z,6.57
2018-04-22T12:57:45.704Z,8.53
2018-04-22T13:00:14.708Z,11.80
2018-04-22T13:02:43.880Z,6.67
2018-04-22T13:05:12.663Z,6.57
2018-04-22T13:07:40.828Z,5.50
2018-04-22T13:10:09.534Z,6.47
2018-04-22T13:12:38.023Z,5.97
2018-04-22T13:15:06.308Z,7.00
2018-04-22T13:17:34.929Z,5.23
2018-04-22T13:20:03.500Z,5.27
2018-04-22T13:22:32.464Z,5.00
2018-04-22T13:25:00.692Z,5.43
2018-04-22T13:27:28.900Z,5.63
2018-04-22T13:29:57.409Z,5.47
2018-04-22T13:32:27.120Z,5.90
2018-04-22T13:34:55.319Z,6.70
2018-04-22T13:37:23.524Z,5.73
2018-04-22T13:39:52.069Z,5.30
2018-04-22T13:42:21.239Z,5.27
2018-04-22T13:44:50.018Z,5.07
2018-04-22T13:47:18.554Z,5.00
2018-04-22T13:49:46.760Z,5.77
2018-04-22T13:52:16.200Z,5.23
2018-04-22T13:54:44.396Z,5.17
2018-04-22T13:57:12.600Z,6.20
2018-04-22T13:59:40.828Z,5.60
2018-04-22T14:02:09.055Z,5.13
2018-04-22T14:04:37.548Z,12.90
2018-04-22T14:07:06.283Z,5.57
2018-04-22T14:09:36.412Z,4.60
2018-04-22T14:12:05.696Z,4.50
2018-04-22T14:14:33.929Z,4.30
2018-04-22T14:17:02.858Z,4.90
2018-04-22T14:19:31.059Z,4.90
2018-04-22T14:21:59.708Z,4.70
2018-04-22T14:24:27.914Z,4.00
2018-04-22T14:26:57.727Z,5.10
2018-04-22T14:29:26.291Z,5.20
2018-04-22T14:31:54.657Z,5.00
2018-04-22T14:34:22.862Z,4.73
2018-04-22T14:36:51.527Z,4.50
2018-04-22T14:39:20.247Z,4.60
2018-04-22T14:41:48.724Z,3.83
2018-04-22T14:44:29.780Z,5.03
2018-04-22T14:46:58.180Z,4.90
2018-04-22T14:49:27.150Z,5.07
2018-04-22T14:51:55.825Z,4.40
2018-04-22T14:54:24.013Z,4.27
2018-04-22T14:56:52.273Z,8.07
2018-04-22T14:59:20.522Z,8.20
2018-04-22T15:01:49.461Z,4.30
2018-04-22T15:04:17.945Z,4.30
2018-04-22T15:06:46.148Z,4.40
2018-04-22T15:09:22.915Z,4.17
2018-04-22T15:11:52.428Z,4.03
2018-04-22T15:14:20.646Z,4.40
2018-04-22T15:16:49.343Z,4.10
2018-04-22T15:19:17.539Z,4.43
2018-04-22T15:21:46.115Z,3.70
2018-04-22T15:24:14.607Z,4.10
2018-04-22T15:26:42.821Z,4.40
2018-04-22T15:29:11.267Z,5.10
2018-04-22T15:31:39.831Z,4.20
2018-04-22T15:34:08.012Z,4.17
2018-04-22T15:36:36.617Z,3.57
2018-04-22T15:39:06.547Z,4.00
2018-04-22T15:41:35.511Z,3.50
2018-04-22T15:44:03.708Z,4.47
2018-04-22T15:46:33.564Z,3.83
2018-04-22T15:49:01.776Z,4.07
2018-04-22T15:51:30.592Z,4.17
2018-04-22T15:53:59.557Z,3.53
2018-04-22T15:56:27.760Z,4.20
2018-04-22T15:58:56.967Z,4.40
2018-04-22T16:01:25.999Z,4.30
2018-04-22T16:03:54.196Z,3.43
2018-04-22T16:06:22.759Z,4.37
2018-04-22T16:08:51.384Z,3.80
2018-04-22T16:11:20.066Z,4.40
2018-04-22T16:13:48.753Z,3.90
2018-04-22T16:16:17.649Z,4.50
2018-04-22T16:18:45.859Z,5.13
2018-04-22T16:21:14.694Z,4.03
2018-04-22T16:23:42.875Z,3.93
2018-04-22T16:26:11.169Z,4.07
2018-04-22T16:28:39.359Z,3.70
2018-04-22T16:31:07.745Z,4.13
2018-04-22T16:33:36.766Z,5.33
2018-04-22T16:36:04.949Z,4.50
2018-04-22T16:38:33.817Z,3.70
2018-04-22T16:41:02.250Z,4.70
2018-04-22T16:43:30.456Z,5.00
2018-04-22T16:46:03.217Z,4.67
2018-04-22T16:48:31.856Z,5.20
2018-04-22T16:51:03.588Z,3.93
2018-04-22T16:53:32.596Z,4.10
2018-04-22T16:56:00.839Z,4.10
2018-04-22T16:58:33.283Z,4.00
2018-04-22T17:01:01.495Z,4.57
2018-04-22T17:03:30.491Z,3.87
2018-04-22T17:05:59.488Z,4.40
2018-04-22T17:08:30.639Z,7.87
2018-04-22T17:10:59.690Z,18.00
2018-04-22T17:13:28.728Z,9.07
2018-04-22T17:15:57.688Z,4.07
2018-04-22T17:18:26.042Z,4.73
2018-04-22T17:20:54.836Z,3.60
2018-04-22T17:23:23.458Z,4.30
2018-04-22T17:25:52.436Z,5.07
2018-04-22T17:28:20.688Z,4.80
2018-04-22T17:30:48.963Z,3.80
2018-04-22T17:33:17.163Z,5.30
2018-04-22T17:35:45.363Z,5.00
2018-04-22T17:38:14.800Z,4.40
2018-04-22T17:40:43.548Z,4.80
2018-04-22T17:43:11.743Z,4.70
2018-04-22T17:45:40.772Z,4.20
2018-04-22T17:48:10.646Z,4.00
2018-04-22T17:50:40.670Z,4.63
2018-04-22T17:53:09.720Z,3.70
2018-04-22T17:55:38.685Z,4.70
2018-04-22T17:58:06.891Z,5.47
2018-04-22T18:00:43.320Z,4.60
2018-04-22T18:03:11.520Z,4.83
2018-04-22T18:05:39.720Z,4.57
2018-04-22T18:08:07.939Z,4.70
2018-04-22T18:10:46.093Z,4.77
2018-04-22T18:13:14.285Z,5.07
2018-04-22T18:15:42.600Z,4.50
2018-04-22T18:18:10.866Z,5.43
2018-04-22T18:20:40.267Z,6.87
2018-04-22T18:23:09.340Z,5.80
2018-04-22T18:25:37.836Z,6.80
2018-04-22T18:28:06.038Z,8.73
2018-04-22T18:30:34.345Z,7.87
2018-04-22T18:33:02.620Z,9.47
2018-04-22T18:35:31.369Z,8.03
2018-04-22T18:38:00.760Z,7.50
2018-04-22T18:40:29.273Z,7.13
2018-04-22T18:42:57.480Z,6.80
2018-04-22T18:45:25.692Z,6.50
2018-04-22T18:47:54.175Z,6.93
2018-04-22T18:50:23.582Z,6.60
2018-04-22T18:52:52.006Z,5.87
2018-04-22T18:55:21.119Z,6.03
2018-04-22T18:57:50.094Z,6.37
2018-04-22T19:00:18.311Z,5.60
2018-04-22T19:02:47.116Z,6.03
2018-04-22T19:05:15.324Z,6.43
2018-04-22T19:07:43.521Z,5.10
2018-04-22T19:10:12.052Z,6.30
2018-04-22T19:12:41.224Z,6.20
2018-04-22T19:15:09.512Z,5.70
2018-04-22T19:17:38.211Z,5.90
2018-04-22T19:20:11.867Z,6.90
2018-04-22T19:22:40.048Z,5.73
2018-04-22T19:25:08.256Z,6.30
2018-04-22T19:27:37.711Z,5.67
2018-04-22T19:30:06.487Z,5.20
2018-04-22T19:32:34.675Z,6.13
2018-04-22T19:35:03.245Z,5.03
2018-04-22T19:37:31.552Z,5.40
2018-04-22T19:40:00.448Z,5.77
2018-04-22T19:42:28.649Z,6.63
2018-04-22T19:44:56.844Z,8.13
2018-04-22T19:47:25.515Z,5.97
2018-04-22T19:49:53.799Z,5.60
2018-04-22T19:52:22.056Z,5.77
2018-04-22T19:54:50.770Z,6.07
2018-04-22T19:57:19.007Z,5.63
2018-04-22T19:59:47.624Z,6.00
2018-04-22T20:02:15.828Z,6.00
2018-04-22T20:04:44.026Z,5.50
2018-04-22T20:07:12.492Z,5.97
2018-04-22T20:09:41.168Z,6.50
2018-04-22T20:12:09.632Z,5.57
2018-04-22T20:14:38.315Z,5.50
2018-04-22T20:17:06.801Z,6.53
2018-04-22T20:19:35.864Z,6.10
2018-04-22T20:22:04.603Z,5.87
2018-04-22T20:24:33.572Z,6.60
2018-04-22T20:27:01.773Z,6.40
2018-04-22T20:29:29.990Z,6.27
2018-04-22T20:31:58.620Z,6.90
2018-04-22T20:34:26.818Z,5.97
2018-04-22T20:36:55.018Z,8.00
2018-04-22T20:39:23.427Z,6.90
2018-04-22T20:41:52.028Z,7.10
2018-04-22T20:44:20.241Z,7.27
2018-04-22T20:46:48.884Z,7.00
2018-04-22T20:49:17.132Z,6.50
2018-04-22T20:51:46.169Z,6.70
2018-04-22T20:54:14.813Z,6.13
2018-04-22T20:56:43.014Z,6.77
2018-04-22T20:59:11.213Z,7.17
2018-04-22T21:01:40.200Z,6.47
2018-04-22T21:04:09.178Z,7.37
2018-04-22T21:06:37.530Z,6.13
2018-04-22T21:09:10.022Z,7.43
2018-04-22T21:11:38.832Z,6.53
2018-04-22T21:14:07.809Z,6.60
2018-04-22T21:16:36.409Z,6.57
2018-04-22T21:19:04.607Z,7.00
2018-04-22T21:21:32.812Z,6.20
2018-04-22T21:24:02.275Z,7.97
2018-04-22T21:26:31.651Z,7.70
2018-04-22T21:28:59.848Z,6.67
2018-04-22T21:31:28.877Z,6.63
2018-04-22T21:33:57.132Z,7.00
2018-04-22T21:36:26.053Z,6.83
2018-04-22T21:38:54.852Z,7.10
2018-04-22T21:41:23.067Z,7.07
2018-04-22T21:43:51.283Z,7.17
2018-04-22T21:46:20.756Z,8.40
2018-04-22T21:48:49.644Z,7.40
2018-04-22T21:51:19.170Z,6.63
2018-04-22T21:53:49.940Z,6.77
2018-04-22T21:56:18.142Z,7.17
2018-04-22T21:58:46.344Z,6.20
2018-04-22T22:01:15.863Z,7.83
2018-04-22T22:03:45.373Z,7.17
2018-04-22T22:06:14.336Z,6.90
2018-04-22T22:08:42.725Z,7.60
2018-04-22T22:11:12.245Z,7.47
2018-04-22T22:13:41.792Z,6.70
2018-04-22T22:16:13.861Z,7.17
2018-04-22T22:18:42.112Z,7.90
2018-04-22T22:21:10.321Z,6.40
2018-04-22T22:23:38.560Z,7.30
2018-04-22T22:26:07.833Z,6.83
2018-04-22T22:28:36.908Z,7.57
2018-04-22T22:31:05.849Z,6.60
2018-04-22T22:33:34.822Z,6.77
2018-04-22T22:36:03.044Z,7.30
2018-04-22T22:38:31.872Z,7.47
2018-04-22T22:41:00.799Z,7.23
2018-04-22T22:43:29.012Z,6.37
2018-04-22T22:45:57.785Z,7.03
2018-04-22T22:48:26.063Z,6.83
2018-04-22T22:51:00.257Z,7.17
2018-04-22T22:53:30.795Z,6.90
2018-04-22T22:55:59.514Z,7.60
2018-04-22T22:58:27.787Z,7.57
2018-04-22T23:00:55.989Z,7.57
2018-04-22T23:03:24.205Z,6.80
2018-04-22T23:05:52.740Z,6.77
2018-04-22T23:08:20.919Z,6.30
2018-04-22T23:10:49.937Z,7.03
2018-04-22T23:13:19.349Z,7.43
2018-04-22T23:15:47.544Z,7.70
2018-04-22T23:18:16.089Z,8.80
2018-04-22T23:20:46.415Z,7.47
2018-04-22T23:23:14.613Z,6.73
2018-04-22T23:25:44.016Z,7.73
2018-04-22T23:28:13.543Z,7.00
2018-04-22T23:30:42.298Z,6.33
2018-04-22T23:33:11.262Z,6.77
2018-04-22T23:35:40.183Z,6.47
2018-04-22T23:38:09.009Z,6.90
2018-04-22T23:40:37.396Z,7.37
2018-04-22T23:43:05.915Z,6.53
2018-04-22T23:45:41.748Z,8.30
2018-04-22T23:48:10.284Z,7.70
2018-04-22T23:50:39.579Z,7.57
2018-04-22T23:53:09.089Z,6.67
2018-04-22T23:55:38.390Z,7.20
2018-04-22T23:58:07.492Z,7.00
